Time;durP1;ratioP1;P1;durP2;ratioP2;P2;SDS_P1;SDS_P2;PMS_P1;PMS_P2;Temp;Humidity;BMP_temperature;BMP_pressure;BME280_temperature;BME280_humidity;BME280_pressure;Samples;Min_cycle;Max_cycle;Signal;HPM_P1;HPM_P2
2022/07/30 00:00:06;;;;;;;5.45;4.10;;;16.00;99.90;;;;;;5076157;28;20790;-74
2022/07/30 00:02:32;;;;;;;4.72;4.00;;;16.00;99.90;;;;;;5070830;28;20063;-74
2022/07/30 00:04:57;;;;;;;7.30;4.45;;;16.00;99.90;;;;;;5074584;28;20080;-74
2022/07/30 00:07:23;;;;;;;7.80;4.38;;;16.00;99.90;;;;;;5065214;28;20396;-74
2022/07/30 00:09:49;;;;;;;5.88;4.57;;;16.00;99.90;;;;;;5077285;28;20044;-74
2022/07/30 00:12:15;;;;;;;5.30;3.85;;;16.00;99.90;;;;;;5075316;28;20507;-74
2022/07/30 00:14:40;;;;;;;4.55;3.30;;;15.90;99.90;;;;;;5076071;28;20044;-75
2022/07/30 00:17:06;;;;;;;3.58;3.20;;;15.90;99.90;;;;;;5075877;28;20051;-74
2022/07/30 00:19:32;;;;;;;6.22;3.58;;;15.80;99.90;;;;;;5075813;28;20075;-75
2022/07/30 00:21:58;;;;;;;6.13;3.40;;;15.80;99.90;;;;;;5075915;28;20986;-75
2022/07/30 00:24:23;;;;;;;6.40;3.75;;;15.80;99.90;;;;;;5077440;28;20123;-74
2022/07/30 00:26:49;;;;;;;5.30;3.63;;;15.80;99.90;;;;;;5090180;28;20048;-75
2022/07/30 00:29:15;;;;;;;4.15;3.42;;;15.70;99.90;;;;;;5074808;28;20167;-73
2022/07/30 00:31:41;;;;;;;5.22;4.05;;;15.70;99.90;;;;;;5077309;28;20044;-75
2022/07/30 00:34:06;;;;;;;6.22;3.65;;;15.60;99.90;;;;;;5076960;28;20044;-75
2022/07/30 00:36:32;;;;;;;5.05;3.22;;;15.60;99.90;;;;;;5074763;28;20079;-75
2022/07/30 00:38:58;;;;;;;6.07;4.38;;;15.70;99.90;;;;;;5076792;28;20111;-73
2022/07/30 00:41:24;;;;;;;5.88;3.30;;;15.70;99.90;;;;;;5074230;28;20059;-75
2022/07/30 00:43:50;;;;;;;5.32;3.78;;;15.70;99.90;;;;;;5076068;28;20480;-74
2022/07/30 00:46:15;;;;;;;4.47;3.60;;;15.70;99.90;;;;;;5077733;28;20177;-75
2022/07/30 00:48:42;;;;;;;5.82;4.10;;;15.60;99.90;;;;;;5086701;28;20093;-74
2022/07/30 00:51:08;;;;;;;3.38;2.88;;;15.50;99.90;;;;;;5076361;28;20032;-75
2022/07/30 00:53:34;;;;;;;4.20;3.80;;;15.50;99.90;;;;;;5075385;28;20048;-75
2022/07/30 00:56:00;;;;;;;5.43;3.78;;;15.50;99.90;;;;;;5074387;28;20674;-75
2022/07/30 00:58:26;;;;;;;4.82;4.45;;;15.50;99.90;;;;;;5075468;28;20867;-73
2022/07/30 01:00:52;;;;;;;6.22;3.92;;;15.50;99.90;;;;;;5074740;28;20076;-75
2022/07/30 01:03:17;;;;;;;4.35;3.95;;;15.50;99.90;;;;;;5076754;28;20044;-75
2022/07/30 01:05:44;;;;;;;4.65;4.25;;;15.30;99.90;;;;;;5073973;28;20543;-75
2022/07/30 01:08:09;;;;;;;7.82;4.05;;;15.20;99.90;;;;;;5073510;28;20048;-75
2022/07/30 01:10:35;;;;;;;5.47;3.72;;;15.30;99.90;;;;;;5076128;28;20048;-75
2022/07/30 01:13:02;;;;;;;6.22;4.97;;;15.20;99.90;;;;;;5074947;28;20048;-75
2022/07/30 01:15:28;;;;;;;3.90;3.50;;;15.10;99.90;;;;;;5073992;28;20515;-74
2022/07/30 01:17:58;;;;;;;7.70;3.55;;;15.10;99.90;;;;;;5074921;28;20139;-75
2022/07/30 01:20:49;;;;;;;8.65;3.47;;;15.10;99.90;;;;;;5073194;28;21424;-74
2022/07/30 01:23:20;;;;;;;6.90;3.80;;;15.10;99.90;;;;;;5070110;28;20131;-75
2022/07/30 01:25:54;;;;;;;5.43;3.53;;;15.10;99.90;;;;;;5075598;28;20780;-74
2022/07/30 01:28:28;;;;;;;6.47;4.55;;;15.00;99.90;;;;;;5074545;28;20060;-75
2022/07/30 01:30:55;;;;;;;;;;;15.00;99.90;;;;;;5076210;28;20527;-75
2022/07/30 01:33:22;;;;;;;4.72;4.28;;;14.90;99.90;;;;;;5076085;28;19924;-74
2022/07/30 01:35:50;;;;;;;4.93;4.43;;;14.90;99.90;;;;;;5074222;28;20144;-73
2022/07/30 01:38:20;;;;;;;6.75;3.88;;;14.90;99.90;;;;;;5077172;28;20051;-75
2022/07/30 01:40:48;;;;;;;6.10;4.53;;;14.90;99.90;;;;;;5075591;28;20036;-75
2022/07/30 01:43:16;;;;;;;5.97;4.18;;;14.90;99.90;;;;;;5076326;28;20073;-73
2022/07/30 01:45:43;;;;;;;12.05;5.25;;;14.80;99.90;;;;;;5078482;28;20069;-74
2022/07/30 01:48:10;;;;;;;9.32;4.43;;;14.90;99.90;;;;;;5080249;28;20055;-75
2022/07/30 01:50:37;;;;;;;13.18;5.60;;;14.90;99.90;;;;;;5083114;28;20047;-74
2022/07/30 01:53:04;;;;;;;4.18;3.35;;;14.80;99.90;;;;;;5098964;28;20055;-73
2022/07/30 01:55:34;;;;;;;5.22;3.75;;;14.70;99.90;;;;;;5080316;28;20143;-75
2022/07/30 01:58:02;;;;;;;3.95;3.53;;;14.70;99.90;;;;;;5090565;28;20058;-75
2022/07/30 02:00:29;;;;;;;4.72;3.67;;;14.60;99.90;;;;;;5079542;28;20040;-74
2022/07/30 02:02:56;;;;;;;5.78;4.03;;;14.50;99.90;;;;;;5088249;28;20124;-75
2022/07/30 02:05:23;;;;;;;4.80;4.15;;;14.50;99.90;;;;;;5079530;28;20051;-75
2022/07/30 02:07:57;;;;;;;6.78;5.00;;;14.50;99.90;;;;;;5078811;28;20151;-75
2022/07/30 02:10:39;;;;;;;5.65;4.53;;;14.50;99.90;;;;;;5079592;28;20066;-75
2022/07/30 02:13:07;;;;;;;5.78;4.95;;;14.40;99.90;;;;;;5079333;28;20044;-75
2022/07/30 02:15:47;;;;;;;6.35;4.90;;;14.40;99.90;;;;;;5076419;28;20051;-75
2022/07/30 02:18:21;;;;;;;5.35;3.95;;;14.40;99.90;;;;;;5078727;28;20484;-74
2022/07/30 02:21:01;;;;;;;6.00;4.03;;;14.30;99.90;;;;;;5079303;28;20049;-75
2022/07/30 02:23:29;;;;;;;5.53;3.47;;;14.40;99.90;;;;;;5076849;28;20771;-74
2022/07/30 02:25:57;;;;;;;5.32;4.40;;;14.30;99.90;;;;;;5079773;28;20055;-75
2022/07/30 02:28:25;;;;;;;7.45;4.15;;;14.30;99.90;;;;;;5076991;28;20420;-75
2022/07/30 02:30:57;;;;;;;4.90;4.05;;;14.20;99.90;;;;;;5078382;28;20090;-75
2022/07/30 02:33:32;;;;;;;6.17;4.00;;;14.20;99.90;;;;;;5076647;28;20052;-75
2022/07/30 02:35:59;;;;;;;9.30;5.88;;;14.20;99.90;;;;;;5079333;28;20278;-75
2022/07/30 02:38:27;;;;;;;4.72;3.45;;;14.10;99.90;;;;;;5077367;28;20128;-75
2022/07/30 02:40:56;;;;;;;4.50;3.90;;;14.20;99.90;;;;;;5080040;28;20047;-74
2022/07/30 02:43:24;;;;;;;5.70;3.70;;;14.10;99.90;;;;;;5077227;28;20048;-74
2022/07/30 02:45:51;;;;;;;4.85;4.05;;;14.20;99.90;;;;;;5078031;28;20781;-75
2022/07/30 02:48:20;;;;;;;4.47;3.75;;;14.10;99.90;;;;;;5078198;28;20090;-74
2022/07/30 02:50:49;;;;;;;4.63;4.20;;;14.10;99.90;;;;;;5078377;28;20134;-75
2022/07/30 02:53:17;;;;;;;5.30;4.43;;;14.00;99.90;;;;;;5079129;28;20807;-74
2022/07/30 02:55:44;;;;;;;4.55;4.15;;;14.00;99.90;;;;;;5076699;28;20048;-74
2022/07/30 02:58:14;;;;;;;3.90;3.58;;;14.00;99.90;;;;;;5079018;28;20056;-75
2022/07/30 03:00:41;;;;;;;4.07;3.67;;;14.00;99.90;;;;;;5076511;28;20391;-74
2022/07/30 03:03:08;;;;;;;6.40;4.20;;;14.00;99.90;;;;;;5077609;28;20051;-73
2022/07/30 03:05:35;;;;;;;5.55;4.93;;;13.90;99.90;;;;;;5076221;28;20129;-73
2022/07/30 03:08:02;;;;;;;5.00;4.43;;;13.90;99.90;;;;;;5077861;28;20060;-73
2022/07/30 03:10:29;;;;;;;5.57;4.00;;;13.80;99.90;;;;;;5079012;28;20055;-74
2022/07/30 03:12:56;;;;;;;4.95;4.45;;;13.80;99.90;;;;;;5087216;28;20047;-73
2022/07/30 03:15:22;;;;;;;6.60;4.35;;;13.70;99.90;;;;;;5071805;28;20064;-73
2022/07/30 03:17:53;;;;;;;4.75;3.72;;;13.70;99.90;;;;;;5078805;28;20086;-75
2022/07/30 03:20:23;;;;;;;6.30;4.45;;;13.60;99.90;;;;;;5077819;28;20773;-74
2022/07/30 03:22:52;;;;;;;5.93;4.60;;;13.60;99.90;;;;;;5078337;28;20067;-73
2022/07/30 03:25:23;;;;;;;7.85;4.90;;;13.60;99.90;;;;;;5078381;28;20109;-75
2022/07/30 03:27:50;;;;;;;6.97;4.65;;;13.60;99.90;;;;;;5072959;28;20048;-74
2022/07/30 03:30:16;;;;;;;5.82;4.63;;;13.60;99.90;;;;;;5077401;28;20048;-74
2022/07/30 03:32:43;;;;;;;7.05;5.50;;;13.60;99.90;;;;;;5077668;28;20391;-73
2022/07/30 03:35:09;;;;;;;6.70;5.50;;;13.60;99.90;;;;;;5087055;28;20048;-73
2022/07/30 03:37:38;;;;;;;6.05;4.82;;;13.60;99.90;;;;;;5077187;28;20578;-75
2022/07/30 03:40:05;;;;;;;8.30;5.97;;;13.60;99.90;;;;;;5076187;28;20067;-73
2022/07/30 03:42:33;;;;;;;6.90;5.57;;;13.60;99.90;;;;;;5076946;28;20131;-74
2022/07/30 03:45:02;;;;;;;6.68;5.57;;;13.60;99.90;;;;;;5077445;28;20050;-73
2022/07/30 03:47:32;;;;;;;7.00;4.88;;;13.60;99.90;;;;;;5077476;28;20055;-74
2022/07/30 03:49:59;;;;;;;8.52;6.10;;;13.60;99.90;;;;;;5077474;28;20090;-74
2022/07/30 03:52:27;;;;;;;10.60;6.43;;;13.60;99.90;;;;;;5083966;28;20552;-75
2022/07/30 03:54:53;;;;;;;8.82;6.75;;;13.60;99.90;;;;;;5075215;28;20051;-73
2022/07/30 03:57:19;;;;;;;7.65;6.30;;;13.50;99.90;;;;;;5075477;28;20055;-74
2022/07/30 03:59:45;;;;;;;9.80;8.32;;;13.60;99.90;;;;;;5077252;28;20056;-75
2022/07/30 04:02:11;;;;;;;10.95;7.15;;;13.50;99.90;;;;;;5076399;28;20052;-75
2022/07/30 04:04:41;;;;;;;9.23;7.68;;;13.50;99.90;;;;;;5077107;28;20105;-75
2022/07/30 04:07:07;;;;;;;7.70;6.40;;;13.90;99.90;;;;;;5057794;28;20147;-75
2022/07/30 04:09:33;;;;;;;7.53;6.43;;;13.50;99.90;;;;;;5076893;28;20040;-74
2022/07/30 04:11:59;;;;;;;10.25;7.32;;;13.50;99.90;;;;;;5075189;28;20901;-72
2022/07/30 04:14:24;;;;;;;8.63;6.75;;;13.60;99.90;;;;;;5076802;28;20097;-74
2022/07/30 04:17:02;;;;;;;7.78;6.97;;;13.60;99.90;;;;;;5074638;28;20047;-75
2022/07/30 04:19:33;;;;;;;8.93;7.25;;;13.60;99.90;;;;;;5076459;28;20056;-75
2022/07/30 04:22:00;;;;;;;7.65;6.85;;;13.70;99.90;;;;;;5058653;28;20048;-73
2022/07/30 04:24:28;;;;;;;9.43;6.93;;;13.80;99.90;;;;;;5076160;28;20076;-74
2022/07/30 04:26:54;;;;;;;9.77;7.50;;;13.70;99.90;;;;;;5075416;28;20112;-74
2022/07/30 04:29:20;;;;;;;6.68;5.78;;;13.80;99.90;;;;;;5077213;28;20060;-74
2022/07/30 04:31:46;;;;;;;9.32;6.65;;;13.80;99.90;;;;;;5076800;28;20048;-75
2022/07/30 04:34:14;;;;;;;13.85;7.10;;;13.90;99.90;;;;;;5077121;28;20052;-73
2022/07/30 04:36:40;;;;;;;9.52;6.75;;;13.90;99.90;;;;;;5076819;28;20207;-73
2022/07/30 04:39:06;;;;;;;8.38;5.68;;;13.90;99.90;;;;;;5074878;28;20059;-72
2022/07/30 04:41:32;;;;;;;9.18;6.10;;;13.90;99.90;;;;;;5074805;28;20052;-75
2022/07/30 04:43:58;;;;;;;11.82;8.35;;;13.90;99.90;;;;;;5076199;28;20825;-73
2022/07/30 04:46:23;;;;;;;11.30;7.13;;;13.90;99.90;;;;;;5075123;28;20062;-74
2022/07/30 04:48:49;;;;;;;11.07;6.95;;;14.20;99.90;;;;;;5075765;28;20050;-74
2022/07/30 04:51:41;;;;;;;9.80;6.72;;;13.80;99.90;;;;;;5076472;28;20401;-73
2022/07/30 04:54:10;;;;;;;7.72;6.53;;;13.90;99.90;;;;;;5073617;28;20427;-74
2022/07/30 04:56:37;;;;;;;12.10;7.28;;;13.90;99.90;;;;;;5076182;28;20055;-73
2022/07/30 04:59:04;;;;;;;11.55;7.20;;;14.00;99.90;;;;;;5074993;28;20529;-72
2022/07/30 05:01:36;;;;;;;13.52;8.93;;;14.10;99.90;;;;;;5068595;28;20151;-73
2022/07/30 05:04:03;;;;;;;13.95;9.52;;;14.20;99.90;;;;;;5073893;28;20078;-74
2022/07/30 05:06:29;;;;;;;13.88;8.68;;;14.30;99.90;;;;;;5076275;28;20488;-73
2022/07/30 05:08:56;;;;;;;11.20;8.27;;;14.40;99.90;;;;;;5075664;28;20044;-74
2022/07/30 05:11:22;;;;;;;14.82;7.95;;;14.50;99.90;;;;;;5077251;28;20044;-75
2022/07/30 05:13:48;;;;;;;10.00;8.73;;;14.60;99.90;;;;;;5075874;28;20105;-74
2022/07/30 05:16:14;;;;;;;11.48;9.27;;;14.60;99.90;;;;;;5075670;28;20589;-75
2022/07/30 05:18:40;;;;;;;11.75;9.13;;;14.70;99.90;;;;;;5076239;28;20566;-74
2022/07/30 05:21:06;;;;;;;19.23;9.95;;;14.80;99.90;;;;;;5079562;28;20051;-75
2022/07/30 05:23:32;;;;;;;19.45;11.88;;;14.90;99.90;;;;;;5079626;28;20039;-75
2022/07/30 05:25:59;;;;;;;14.20;10.63;;;15.00;99.90;;;;;;5079104;28;20048;-75
2022/07/30 05:28:27;;;;;;;15.25;9.73;;;15.10;99.90;;;;;;5079700;28;20072;-74
2022/07/30 05:30:54;;;;;;;14.65;9.85;;;15.20;99.90;;;;;;5077379;28;20047;-74
2022/07/30 05:33:20;;;;;;;15.55;11.30;;;15.30;99.90;;;;;;5079701;28;20044;-74
2022/07/30 05:35:47;;;;;;;16.90;10.70;;;15.40;99.90;;;;;;5079617;28;20582;-75
2022/07/30 05:38:13;;;;;;;17.52;11.73;;;15.50;99.90;;;;;;5077390;28;20078;-75
2022/07/30 05:40:38;;;;;;;14.55;10.20;;;15.60;99.90;;;;;;5080185;28;20048;-74
2022/07/30 05:43:04;;;;;;;11.77;9.25;;;15.70;99.90;;;;;;5075907;28;20055;-74
2022/07/30 05:45:30;;;;;;;11.48;8.32;;;15.80;99.90;;;;;;5077489;28;20052;-74
2022/07/30 05:47:56;;;;;;;14.70;11.05;;;15.90;99.90;;;;;;5088259;28;20056;-72
2022/07/30 05:50:22;;;;;;;13.75;10.50;;;16.00;99.90;;;;;;5077165;28;20147;-75
2022/07/30 05:52:48;;;;;;;13.75;10.18;;;16.10;99.90;;;;;;5076641;28;20048;-73
2022/07/30 05:55:13;;;;;;;15.15;10.63;;;16.20;99.90;;;;;;5075372;28;20143;-74
2022/07/30 05:57:42;;;;;;;18.10;10.68;;;16.30;99.90;;;;;;5076455;28;20047;-73
2022/07/30 06:00:10;;;;;;;13.35;10.82;;;16.40;99.90;;;;;;5070039;28;20055;-73
2022/07/30 06:02:36;;;;;;;14.95;9.55;;;16.50;99.90;;;;;;5076384;28;20799;-75
2022/07/30 06:05:02;;;;;;;13.73;10.60;;;16.60;99.90;;;;;;5079803;28;20055;-74
2022/07/30 06:07:27;;;;;;;13.60;10.55;;;16.70;99.90;;;;;;5074423;28;20044;-74
2022/07/30 06:09:58;;;;;;;14.15;10.38;;;16.80;99.90;;;;;;5075899;28;20053;-74
2022/07/30 06:12:27;;;;;;;16.35;10.63;;;16.90;99.90;;;;;;5077224;28;20056;-76
2022/07/30 06:14:53;;;;;;;15.90;10.50;;;17.00;99.90;;;;;;5074150;28;20114;-75
2022/07/30 06:17:19;;;;;;;14.35;10.98;;;17.10;99.90;;;;;;5074610;28;20059;-73
2022/07/30 06:19:45;;;;;;;14.70;10.48;;;17.10;99.90;;;;;;5075651;28;20044;-75
2022/07/30 06:22:10;;;;;;;14.43;10.40;;;17.20;99.90;;;;;;5058543;28;20052;-75
2022/07/30 06:24:36;;;;;;;13.30;9.00;;;17.30;99.90;;;;;;5075673;28;20047;-75
2022/07/30 06:27:02;;;;;;;14.35;9.40;;;17.40;99.90;;;;;;5075622;28;20071;-73
2022/07/30 06:29:28;;;;;;;14.40;10.73;;;17.50;99.90;;;;;;5073715;28;20056;-72
2022/07/30 06:31:53;;;;;;;13.40;9.32;;;17.60;99.90;;;;;;5070742;28;20090;-75
2022/07/30 06:34:19;;;;;;;12.70;10.15;;;17.70;99.90;;;;;;5074816;28;20032;-74
2022/07/30 06:36:45;;;;;;;16.42;10.23;;;17.90;99.90;;;;;;5073631;28;20048;-75
2022/07/30 06:39:11;;;;;;;16.65;9.30;;;18.00;99.90;;;;;;5074780;28;20087;-75
2022/07/30 06:41:36;;;;;;;14.00;8.85;;;18.20;99.90;;;;;;5076561;28;20901;-73
2022/07/30 06:44:02;;;;;;;13.90;8.82;;;18.40;99.90;;;;;;5076471;28;20654;-74
2022/07/30 06:46:28;;;;;;;10.73;8.65;;;19.00;99.90;;;;;;5073616;28;20170;-74
2022/07/30 06:48:54;;;;;;;8.40;7.55;;;20.10;99.90;;;;;;5074419;28;20048;-75
2022/07/30 06:51:19;;;;;;;9.32;7.03;;;21.30;99.90;;;;;;5074722;28;20373;-75
2022/07/30 06:53:45;;;;;;;9.85;7.00;;;22.20;99.90;;;;;;5071031;28;20172;-77
2022/07/30 06:56:12;;;;;;;9.65;6.70;;;22.90;99.90;;;;;;5074111;28;20315;-76
2022/07/30 06:58:38;;;;;;;7.05;6.45;;;23.60;99.90;;;;;;5073869;28;20075;-74
2022/07/30 07:01:04;;;;;;;9.50;6.85;;;24.20;99.90;;;;;;5074129;28;20892;-77
2022/07/30 07:03:29;;;;;;;7.68;6.53;;;24.80;99.90;;;;;;5075702;28;20059;-76
2022/07/30 07:05:55;;;;;;;11.75;7.07;;;25.20;99.90;;;;;;5075616;28;20059;-76
2022/07/30 07:08:21;;;;;;;9.82;6.68;;;25.50;99.90;;;;;;5073862;28;20052;-74
2022/07/30 07:10:46;;;;;;;10.73;6.50;;;25.80;99.90;;;;;;5071169;28;20047;-76
2022/07/30 07:13:12;;;;;;;9.73;6.70;;;26.00;99.90;;;;;;5072938;28;20147;-78
2022/07/30 07:15:38;;;;;;;17.55;6.40;;;26.20;99.90;;;;;;5073195;28;20039;-76
2022/07/30 07:18:05;;;;;;;9.73;6.40;;;26.50;99.90;;;;;;5072054;28;20046;-77
2022/07/30 07:20:32;;;;;;;7.82;6.35;;;26.40;99.90;;;;;;5073292;28;20051;-76
2022/07/30 07:22:58;;;;;;;7.65;6.20;;;26.50;99.90;;;;;;5074157;28;20047;-75
2022/07/30 07:25:23;;;;;;;13.98;6.32;;;26.70;99.90;;;;;;5073549;28;20058;-78
2022/07/30 07:27:49;;;;;;;8.95;5.32;;;26.90;99.90;;;;;;5073278;28;20828;-74
2022/07/30 07:30:15;;;;;;;10.32;6.15;;;27.10;99.40;;;;;;5073817;28;20048;-78
2022/07/30 07:32:40;;;;;;;10.63;5.38;;;27.00;98.00;;;;;;5085253;28;20146;-78
2022/07/30 07:35:06;;;;;;;8.00;5.40;;;27.30;98.40;;;;;;5076426;28;21457;-76
2022/07/30 07:37:32;;;;;;;9.18;6.07;;;27.60;97.70;;;;;;5074738;28;20096;-78
2022/07/30 07:39:58;;;;;;;8.48;5.85;;;27.80;97.10;;;;;;5069579;28;20055;-77
2022/07/30 07:42:24;;;;;;;8.95;5.13;;;28.30;96.40;;;;;;5074820;28;20048;-76
2022/07/30 07:44:50;;;;;;;9.52;5.25;;;28.40;96.10;;;;;;5073413;28;20055;-75
2022/07/30 07:47:16;;;;;;;6.80;5.65;;;28.60;95.30;;;;;;5076872;28;20052;-77
2022/07/30 07:49:41;;;;;;;12.85;6.03;;;29.00;94.90;;;;;;5074689;28;20059;-78
2022/07/30 07:52:07;;;;;;;8.70;5.60;;;29.10;94.40;;;;;;5076689;28;20882;-77
2022/07/30 07:54:33;;;;;;;6.70;4.57;;;29.10;93.50;;;;;;5075947;28;20436;-77
2022/07/30 07:56:58;;;;;;;6.65;4.63;;;29.40;93.70;;;;;;5058376;28;20032;-76
2022/07/30 07:59:24;;;;;;;9.35;5.05;;;29.20;93.40;;;;;;5075523;28;20083;-78
2022/07/30 08:01:50;;;;;;;8.38;5.40;;;29.60;93.00;;;;;;5078202;28;20120;-77
2022/07/30 08:04:16;;;;;;;7.03;4.35;;;29.60;92.50;;;;;;5076368;28;20044;-79
2022/07/30 08:06:42;;;;;;;5.03;4.55;;;29.70;92.20;;;;;;5074995;28;20494;-77
2022/07/30 08:09:07;;;;;;;6.80;4.68;;;30.20;91.70;;;;;;5075159;28;20558;-77
2022/07/30 08:11:33;;;;;;;6.60;4.38;;;30.20;91.40;;;;;;5075705;28;20126;-78
2022/07/30 08:13:59;;;;;;;5.40;4.72;;;30.50;91.30;;;;;;5071405;28;20137;-75
2022/07/30 08:16:24;;;;;;;8.88;4.60;;;30.70;91.00;;;;;;5073972;28;20093;-77
2022/07/30 08:18:50;;;;;;;7.65;5.03;;;30.60;90.70;;;;;;5075195;28;20044;-79
2022/07/30 08:21:16;;;;;;;7.38;5.32;;;30.30;90.60;;;;;;5074176;28;20122;-79
2022/07/30 08:23:42;;;;;;;6.75;5.05;;;30.40;90.40;;;;;;5076619;28;21356;-77
2022/07/30 08:26:07;;;;;;;5.97;4.53;;;30.30;90.30;;;;;;5074379;28;20036;-78
2022/07/30 08:28:35;;;;;;;6.25;4.25;;;30.30;90.30;;;;;;5073800;28;20056;-77
2022/07/30 08:31:01;;;;;;;8.00;4.20;;;30.20;90.10;;;;;;5077441;28;20382;-77
2022/07/30 08:33:26;;;;;;;6.50;4.40;;;30.30;90.10;;;;;;5074370;28;20526;-76
2022/07/30 08:35:52;;;;;;;4.93;4.30;;;30.40;90.10;;;;;;5074497;28;20147;-78
2022/07/30 08:38:18;;;;;;;4.70;4.30;;;30.40;89.50;;;;;;5074111;28;20048;-77
2022/07/30 08:40:44;;;;;;;8.30;5.18;;;30.10;89.80;;;;;;5075008;28;20036;-78
2022/07/30 08:43:10;;;;;;;4.68;3.78;;;29.90;90.00;;;;;;5074858;28;20036;-79
2022/07/30 08:45:37;;;;;;;7.80;3.80;;;30.20;89.90;;;;;;5074470;28;20048;-79
2022/07/30 08:48:07;;;;;;;6.10;3.95;;;30.60;89.30;;;;;;5073841;28;20424;-78
2022/07/30 08:50:33;;;;;;;12.65;4.82;;;30.60;86.90;;;;;;5073187;28;20036;-76
2022/07/30 08:53:00;;;;;;;4.70;3.58;;;30.30;88.00;;;;;;5074384;28;20048;-75
2022/07/30 08:55:27;;;;;;;8.50;5.00;;;30.60;87.10;;;;;;5071285;28;20079;-77
2022/07/30 08:57:53;;;;;;;9.82;4.13;;;30.80;87.10;;;;;;5073162;28;20293;-79
2022/07/30 09:00:20;;;;;;;5.78;4.32;;;30.90;86.60;;;;;;5074626;28;20044;-75
2022/07/30 09:02:46;;;;;;;7.10;4.00;;;30.70;86.40;;;;;;5073295;28;20059;-77
2022/07/30 09:05:12;;;;;;;6.90;4.32;;;30.70;86.10;;;;;;5075711;28;20083;-78
2022/07/30 09:07:39;;;;;;;5.00;4.10;;;30.40;86.10;;;;;;5073775;28;20044;-75
2022/07/30 09:10:07;;;;;;;5.20;3.80;;;30.30;85.00;;;;;;5075314;28;20047;-76
2022/07/30 09:12:43;;;;;;;8.73;4.53;;;30.40;85.40;;;;;;5075139;28;20044;-74
2022/07/30 09:15:19;;;;;;;7.40;3.10;;;30.30;82.10;;;;;;5074054;28;20521;-74
2022/07/30 09:17:56;;;;;;;4.38;3.13;;;30.30;83.90;;;;;;5075003;28;20083;-74
2022/07/30 09:20:42;;;;;;;6.30;3.92;;;30.70;83.40;;;;;;5073864;28;20105;-77
2022/07/30 09:23:08;;;;;;;5.13;4.03;;;30.80;82.20;;;;;;5074532;28;20098;-75
2022/07/30 09:25:39;;;;;;;4.22;3.08;;;31.00;84.60;;;;;;5077533;28;20789;-77
2022/07/30 09:28:08;;;;;;;7.82;3.38;;;30.40;82.50;;;;;;5075543;28;20044;-77
2022/07/30 09:30:50;;;;;;;3.83;3.40;;;30.30;84.50;;;;;;5076241;28;20082;-78
2022/07/30 09:33:36;;;;;;;6.03;3.85;;;30.00;82.80;;;;;;5073444;28;20148;-78
2022/07/30 09:36:04;;;;;;;4.60;3.03;;;30.10;82.20;;;;;;5072188;28;20060;-76
2022/07/30 09:38:47;;;;;;;5.47;2.95;;;30.20;86.90;;;;;;5066091;28;20052;-78
2022/07/30 09:41:14;;;;;;;5.32;2.92;;;30.60;83.20;;;;;;5073297;28;20125;-76
2022/07/30 09:43:48;;;;;;;4.30;3.13;;;30.50;83.40;;;;;;5076179;28;20062;-78
2022/07/30 09:46:15;;;;;;;5.72;3.40;;;30.80;82.20;;;;;;5105734;27;20052;-78
2022/07/30 09:48:42;;;;;;;4.13;3.05;;;30.60;83.00;;;;;;5075155;28;20044;-76
2022/07/30 09:51:08;;;;;;;3.13;2.85;;;30.90;82.80;;;;;;5073108;28;20124;-79
2022/07/30 09:53:35;;;;;;;4.70;3.03;;;30.80;81.70;;;;;;5075140;28;20090;-76
2022/07/30 09:56:22;;;;;;;4.90;3.50;;;31.00;81.60;;;;;;5073916;28;20048;-77
2022/07/30 09:58:48;;;;;;;3.30;2.70;;;30.90;80.70;;;;;;5075037;28;20054;-76
2022/07/30 10:01:14;;;;;;;4.22;2.53;;;31.10;81.40;;;;;;5074864;28;20604;-78
2022/07/30 10:03:44;;;;;;;3.22;2.17;;;31.40;80.80;;;;;;5073841;28;20040;-77
2022/07/30 10:06:10;;;;;;;6.93;2.80;;;31.30;77.90;;;;;;5078618;28;20078;-78
2022/07/30 10:08:48;;;;;;;3.30;2.63;;;31.30;79.40;;;;;;5078701;28;20074;-78
2022/07/30 10:11:21;;;;;;;4.53;2.67;;;31.10;77.60;;;;;;5079986;28;20044;-78
2022/07/30 10:13:52;;;;;;;5.13;2.75;;;31.30;79.50;;;;;;5078010;28;20043;-78
2022/07/30 10:16:19;;;;;;;4.45;3.03;;;31.60;80.50;;;;;;5078446;28;20051;-76
2022/07/30 10:18:45;;;;;;;6.13;3.00;;;31.40;79.90;;;;;;5075688;28;20671;-78
2022/07/30 10:21:11;;;;;;;8.55;3.58;;;31.40;79.70;;;;;;5078287;28;20032;-77
2022/07/30 10:23:38;;;;;;;3.88;2.80;;;31.20;79.90;;;;;;5076480;28;20051;-78
2022/07/30 10:26:05;;;;;;;5.28;3.03;;;30.70;79.60;;;;;;5078923;28;20117;-79
2022/07/30 10:28:30;;;;;;;3.95;2.47;;;30.60;80.10;;;;;;5077274;28;20059;-75
2022/07/30 10:30:57;;;;;;;2.92;2.60;;;30.70;79.80;;;;;;5078381;28;20044;-75
2022/07/30 10:33:27;;;;;;;6.03;2.78;;;30.70;78.80;;;;;;5076814;28;20436;-74
2022/07/30 10:35:53;;;;;;;6.43;3.47;;;30.70;77.90;;;;;;5077157;28;20052;-74
2022/07/30 10:38:31;;;;;;;4.93;2.80;;;30.40;79.00;;;;;;5077647;28;20155;-75
2022/07/30 10:41:25;;;;;;;4.97;2.50;;;29.60;77.10;;;;;;5077052;28;20931;-75
2022/07/30 10:44:19;;;;;;;8.85;2.92;;;29.40;77.70;;;;;;5062868;28;20143;-74
2022/07/30 10:46:57;;;;;;;3.47;2.45;;;29.90;77.20;;;;;;5067541;28;20187;-75
2022/07/30 10:49:24;;;;;;;4.18;2.70;;;30.20;77.90;;;;;;5075103;28;20154;-75
2022/07/30 10:51:53;;;;;;;4.90;3.40;;;29.70;79.50;;;;;;5077074;28;20059;-75
2022/07/30 10:54:37;;;;;;;6.60;2.90;;;29.90;79.30;;;;;;5077306;28;20826;-74
2022/07/30 10:57:16;;;;;;;5.78;2.78;;;29.50;78.90;;;;;;5076834;28;20492;-74
2022/07/30 10:59:54;;;;;;;6.20;3.20;;;29.40;78.00;;;;;;5078277;28;20044;-76
2022/07/30 11:02:25;;;;;;;4.78;2.53;;;28.80;78.00;;;;;;5076650;28;20543;-76
2022/07/30 11:05:16;;;;;;;3.58;2.83;;;28.40;79.70;;;;;;5086419;28;20039;-75
2022/07/30 11:07:43;;;;;;;6.18;3.15;;;28.40;80.00;;;;;;5078357;28;20051;-75
2022/07/30 11:10:34;;;;;;;4.97;2.53;;;28.20;79.40;;;;;;5077682;28;20148;-75
2022/07/30 11:13:00;;;;;;;6.47;2.88;;;28.60;81.00;;;;;;5077132;28;20067;-75
2022/07/30 11:15:58;;;;;;;5.30;2.88;;;28.90;79.40;;;;;;5075766;28;20044;-75
2022/07/30 11:18:26;;;;;;;6.15;2.15;;;29.00;78.40;;;;;;5073066;28;20044;-75
2022/07/30 11:21:13;;;;;;;5.28;2.40;;;29.00;78.60;;;;;;5073650;28;20048;-78
2022/07/30 11:23:40;;;;;;;6.38;2.83;;;28.50;77.80;;;;;;5074215;28;20047;-75
2022/07/30 11:26:06;;;;;;;10.25;3.67;;;28.30;79.40;;;;;;5078726;28;20052;-77
2022/07/30 11:28:39;;;;;;;4.10;2.45;;;28.00;79.20;;;;;;5073931;28;20059;-76
2022/07/30 11:31:30;;;;;;;5.95;2.45;;;27.80;79.20;;;;;;5073275;28;20060;-76
2022/07/30 11:34:17;;;;;;;4.25;3.13;;;27.60;79.40;;;;;;5076801;28;20071;-78
2022/07/30 11:37:05;;;;;;;3.35;2.75;;;27.40;80.70;;;;;;5049651;28;20087;-78
2022/07/30 11:39:52;;;;;;;3.13;2.42;;;27.30;80.20;;;;;;5070178;28;20675;-77
2022/07/30 11:42:28;;;;;;;6.60;2.78;;;27.30;80.50;;;;;;5072682;28;20616;-75
2022/07/30 11:45:16;;;;;;;4.35;2.65;;;27.70;79.50;;;;;;5072509;28;20048;-78
2022/07/30 11:47:47;;;;;;;4.90;2.47;;;27.80;80.20;;;;;;5073141;28;20048;-75
2022/07/30 11:50:31;;;;;;;4.60;2.13;;;28.00;77.30;;;;;;5075169;28;20108;-79
2022/07/30 11:53:04;;;;;;;4.28;2.80;;;28.30;78.80;;;;;;5086079;28;20415;-77
2022/07/30 11:55:29;;;;;;;;;;;28.30;78.20;;;;;;5052989;28;20056;-75
2022/07/30 11:57:56;;;;;;;4.55;2.40;;;28.40;78.30;;;;;;5073733;28;19931;-78
2022/07/30 12:00:22;;;;;;;4.93;2.30;;;28.50;77.50;;;;;;5072085;28;20036;-76
2022/07/30 12:02:49;;;;;;;5.10;2.42;;;28.70;77.70;;;;;;5075159;28;20096;-75
2022/07/30 12:05:21;;;;;;;3.25;2.00;;;28.80;77.30;;;;;;5073213;28;20606;-77
2022/07/30 12:07:47;;;;;;;4.75;2.60;;;28.60;76.90;;;;;;5071354;28;20919;-79
2022/07/30 12:10:14;;;;;;;3.35;2.80;;;28.30;76.70;;;;;;5070875;28;20494;-75
2022/07/30 12:12:40;;;;;;;6.20;2.85;;;28.20;76.90;;;;;;5073361;28;20446;-75
2022/07/30 12:15:06;;;;;;;2.88;2.28;;;28.20;77.00;;;;;;5072541;28;20052;-77
2022/07/30 12:17:45;;;;;;;3.25;2.22;;;28.40;77.20;;;;;;5073983;28;20059;-75
2022/07/30 12:20:16;;;;;;;5.05;2.33;;;28.40;78.00;;;;;;5090157;28;20051;-76
2022/07/30 12:22:42;;;;;;;3.67;2.42;;;28.30;75.50;;;;;;5080541;28;20052;-78
2022/07/30 12:25:08;;;;;;;2.30;1.92;;;28.40;76.40;;;;;;5071801;28;20093;-78
2022/07/30 12:27:34;;;;;;;3.90;2.42;;;28.40;76.50;;;;;;5073309;28;20151;-78
2022/07/30 12:30:00;;;;;;;3.85;2.30;;;28.40;75.60;;;;;;5066593;28;20056;-74
2022/07/30 12:32:26;;;;;;;3.90;2.20;;;28.50;76.10;;;;;;5070370;28;20047;-75
2022/07/30 12:34:57;;;;;;;4.18;2.00;;;28.50;75.30;;;;;;5071435;28;20051;-78
2022/07/30 12:37:23;;;;;;;8.10;2.58;;;28.50;75.60;;;;;;5073894;28;20495;-78
2022/07/30 12:40:13;;;;;;;2.78;1.92;;;28.50;75.70;;;;;;5071990;28;20079;-74
2022/07/30 12:42:52;;;;;;;3.78;2.83;;;28.50;75.80;;;;;;5074376;28;20231;-76
2022/07/30 12:45:31;;;;;;;2.92;2.05;;;28.40;75.70;;;;;;5076875;28;20051;-78
2022/07/30 12:48:00;;;;;;;3.65;2.15;;;28.30;75.60;;;;;;5071100;28;20385;-76
2022/07/30 12:50:26;;;;;;;3.35;2.38;;;28.20;76.10;;;;;;5072727;28;20052;-73
2022/07/30 12:52:54;;;;;;;2.22;2.10;;;28.30;75.30;;;;;;5078499;28;20091;-75